sensor_id;sensor_type;location;lat;lon;timestamp;pressure;altitude;pressure_sealevel;temperature;humidity
69257;BME280;56376;53.356;-1.748;2023-05-21T00:00:13;100459.28;;;10.05;83.60
69257;BME280;56376;53.356;-1.748;2023-05-21T00:02:39;100462.03;;;10.01;84.18
69257;BME280;56376;53.356;-1.748;2023-05-21T00:05:05;100464.63;;;10.01;84.37
69257;BME280;56376;53.356;-1.748;2023-05-21T00:07:30;100453.38;;;9.97;84.51
69257;BME280;56376;53.356;-1.748;2023-05-21T00:09:57;100460.44;;;9.92;84.74
69257;BME280;56376;53.356;-1.748;2023-05-21T00:12:22;100460.50;;;9.87;84.95
69257;BME280;56376;53.356;-1.748;2023-05-21T00:14:48;100452.78;;;9.83;85.01
69257;BME280;56376;53.356;-1.748;2023-05-21T00:17:13;100454.56;;;9.79;85.15
69257;BME280;56376;53.356;-1.748;2023-05-21T00:19:38;100447.69;;;9.75;85.38
69257;BME280;56376;53.356;-1.748;2023-05-21T00:22:04;100446.88;;;9.73;85.59
69257;BME280;56376;53.356;-1.748;2023-05-21T00:24:30;100441.69;;;9.71;85.70
69257;BME280;56376;53.356;-1.748;2023-05-21T00:26:55;100435.66;;;9.68;85.97
69257;BME280;56376;53.356;-1.748;2023-05-21T00:29:21;100436.53;;;9.67;85.85
69257;BME280;56376;53.356;-1.748;2023-05-21T00:31:47;100441.88;;;9.61;85.91
69257;BME280;56376;53.356;-1.748;2023-05-21T00:34:14;100447.09;;;9.61;86.03
69257;BME280;56376;53.356;-1.748;2023-05-21T00:36:39;100437.56;;;9.58;86.68
69257;BME280;56376;53.356;-1.748;2023-05-21T00:39:05;100445.41;;;9.57;87.52
69257;BME280;56376;53.356;-1.748;2023-05-21T00:41:30;100451.59;;;9.52;87.47
69257;BME280;56376;53.356;-1.748;2023-05-21T00:43:56;100457.72;;;9.50;88.05
69257;BME280;56376;53.356;-1.748;2023-05-21T00:46:24;100460.34;;;9.47;88.26
69257;BME280;56376;53.356;-1.748;2023-05-21T00:48:53;100457.88;;;9.41;88.65
69257;BME280;56376;53.356;-1.748;2023-05-21T00:51:19;100453.50;;;9.43;88.38
69257;BME280;56376;53.356;-1.748;2023-05-21T00:53:48;100452.53;;;9.47;88.18
69257;BME280;56376;53.356;-1.748;2023-05-21T00:56:15;100455.06;;;9.51;87.73
69257;BME280;56376;53.356;-1.748;2023-05-21T00:58:41;100455.00;;;9.54;87.85
69257;BME280;56376;53.356;-1.748;2023-05-21T01:01:07;100442.94;;;9.50;88.34
69257;BME280;56376;53.356;-1.748;2023-05-21T01:03:37;100444.78;;;9.42;88.70
69257;BME280;56376;53.356;-1.748;2023-05-21T01:06:08;100443.19;;;9.35;88.79
69257;BME280;56376;53.356;-1.748;2023-05-21T01:08:34;100453.69;;;9.29;89.09
69257;BME280;56376;53.356;-1.748;2023-05-21T01:11:06;100452.06;;;9.25;89.05
69257;BME280;56376;53.356;-1.748;2023-05-21T01:13:33;100456.38;;;9.24;89.26
69257;BME280;56376;53.356;-1.748;2023-05-21T01:15:58;100448.56;;;9.24;89.29
69257;BME280;56376;53.356;-1.748;2023-05-21T01:18:25;100447.66;;;9.27;89.00
69257;BME280;56376;53.356;-1.748;2023-05-21T01:20:51;100447.66;;;9.27;89.08
69257;BME280;56376;53.356;-1.748;2023-05-21T01:23:17;100438.25;;;9.17;89.39
69257;BME280;56376;53.356;-1.748;2023-05-21T01:25:43;100452.25;;;9.13;89.67
69257;BME280;56376;53.356;-1.748;2023-05-21T01:28:09;100450.59;;;9.05;89.50
69257;BME280;56376;53.356;-1.748;2023-05-21T01:30:36;100445.44;;;9.02;89.75
69257;BME280;56376;53.356;-1.748;2023-05-21T01:33:14;100444.63;;;8.99;90.33
69257;BME280;56376;53.356;-1.748;2023-05-21T01:35:53;100451.59;;;8.98;90.70
69257;BME280;56376;53.356;-1.748;2023-05-21T01:38:32;100444.78;;;8.90;90.80
69257;BME280;56376;53.356;-1.748;2023-05-21T01:41:05;100443.97;;;8.84;90.84
69257;BME280;56376;53.356;-1.748;2023-05-21T01:43:33;100441.44;;;8.78;90.47
69257;BME280;56376;53.356;-1.748;2023-05-21T01:46:01;100444.09;;;8.75;90.71
69257;BME280;56376;53.356;-1.748;2023-05-21T01:48:27;100444.16;;;8.71;90.29
69257;BME280;56376;53.356;-1.748;2023-05-21T01:50:54;100446.88;;;8.64;90.27
69257;BME280;56376;53.356;-1.748;2023-05-21T01:53:22;100436.50;;;8.60;89.62
69257;BME280;56376;53.356;-1.748;2023-05-21T01:55:47;100438.28;;;8.56;89.36
69257;BME280;56376;53.356;-1.748;2023-05-21T01:58:13;100426.16;;;8.54;89.22
69257;BME280;56376;53.356;-1.748;2023-05-21T02:00:40;100427.94;;;8.52;89.47
69257;BME280;56376;53.356;-1.748;2023-05-21T02:03:06;100425.41;;;8.47;89.55
69257;BME280;56376;53.356;-1.748;2023-05-21T02:05:32;100421.09;;;8.43;89.59
69257;BME280;56376;53.356;-1.748;2023-05-21T02:07:57;100431.53;;;8.38;89.67
69257;BME280;56376;53.356;-1.748;2023-05-21T02:10:24;100423.78;;;8.35;89.99
69257;BME280;56376;53.356;-1.748;2023-05-21T02:12:50;100425.56;;;8.30;90.55
69257;BME280;56376;53.356;-1.748;2023-05-21T02:15:15;100423.03;;;8.27;91.21
69257;BME280;56376;53.356;-1.748;2023-05-21T02:17:47;100413.53;;;8.23;91.66
69257;BME280;56376;53.356;-1.748;2023-05-21T02:20:15;100411.88;;;8.16;91.52
69257;BME280;56376;53.356;-1.748;2023-05-21T02:22:43;100412.72;;;8.16;91.73
69257;BME280;56376;53.356;-1.748;2023-05-21T02:25:10;100417.13;;;8.13;92.38
69257;BME280;56376;53.356;-1.748;2023-05-21T02:27:36;100411.97;;;8.08;92.67
69257;BME280;56376;53.356;-1.748;2023-05-21T02:30:07;100408.56;;;8.03;92.53
69257;BME280;56376;53.356;-1.748;2023-05-21T02:32:34;100416.41;;;7.98;92.47
69257;BME280;56376;53.356;-1.748;2023-05-21T02:35:00;100410.38;;;7.95;92.37
69257;BME280;56376;53.356;-1.748;2023-05-21T02:37:29;100416.50;;;7.94;92.34
69257;BME280;56376;53.356;-1.748;2023-05-21T02:39:58;100413.91;;;7.91;91.90
69257;BME280;56376;53.356;-1.748;2023-05-21T02:42:23;100407.91;;;7.84;91.90
69257;BME280;56376;53.356;-1.748;2023-05-21T02:44:49;100408.81;;;7.80;91.76
69257;BME280;56376;53.356;-1.748;2023-05-21T02:47:16;100414.03;;;7.78;91.95
69257;BME280;56376;53.356;-1.748;2023-05-21T02:49:41;100410.59;;;7.75;92.28
69257;BME280;56376;53.356;-1.748;2023-05-21T02:52:06;100408.00;;;7.75;92.31
69257;BME280;56376;53.356;-1.748;2023-05-21T02:54:32;100396.75;;;7.74;92.74
69257;BME280;56376;53.356;-1.748;2023-05-21T02:56:57;100405.41;;;7.75;93.38
69257;BME280;56376;53.356;-1.748;2023-05-21T02:59:22;100403.75;;;7.69;93.27
69257;BME280;56376;53.356;-1.748;2023-05-21T03:01:48;100397.72;;;7.63;93.85
69257;BME280;56376;53.356;-1.748;2023-05-21T03:04:13;100398.66;;;7.58;94.05
69257;BME280;56376;53.356;-1.748;2023-05-21T03:06:41;100398.69;;;7.54;93.81
69257;BME280;56376;53.356;-1.748;2023-05-21T03:09:06;100403.03;;;7.53;93.76
69257;BME280;56376;53.356;-1.748;2023-05-21T03:11:32;100400.44;;;7.50;93.77
69257;BME280;56376;53.356;-1.748;2023-05-21T03:13:57;100393.59;;;7.45;94.12
69257;BME280;56376;53.356;-1.748;2023-05-21T03:16:23;100390.09;;;7.46;94.47
69257;BME280;56376;53.356;-1.748;2023-05-21T03:18:48;100393.59;;;7.45;94.35
69257;BME280;56376;53.356;-1.748;2023-05-21T03:21:13;100397.91;;;7.46;94.49
69257;BME280;56376;53.356;-1.748;2023-05-21T03:23:40;100390.13;;;7.43;94.25
69257;BME280;56376;53.356;-1.748;2023-05-21T03:26:07;100382.38;;;7.40;94.63
69257;BME280;56376;53.356;-1.748;2023-05-21T03:28:33;100384.13;;;7.37;94.99
69257;BME280;56376;53.356;-1.748;2023-05-21T03:30:58;100391.91;;;7.37;95.18
69257;BME280;56376;53.356;-1.748;2023-05-21T03:33:24;100375.50;;;7.34;94.95
69257;BME280;56376;53.356;-1.748;2023-05-21T03:35:49;100379.00;;;7.30;95.44
69257;BME280;56376;53.356;-1.748;2023-05-21T03:38:15;100373.84;;;7.25;95.46
69257;BME280;56376;53.356;-1.748;2023-05-21T03:40:40;100381.66;;;7.24;95.11
69257;BME280;56376;53.356;-1.748;2023-05-21T03:43:06;100373.88;;;7.22;94.77
69257;BME280;56376;53.356;-1.748;2023-05-21T03:45:31;100377.34;;;7.21;94.46
69257;BME280;56376;53.356;-1.748;2023-05-21T03:47:56;100378.25;;;7.19;94.58
69257;BME280;56376;53.356;-1.748;2023-05-21T03:50:22;100382.56;;;7.18;94.81
69257;BME280;56376;53.356;-1.748;2023-05-21T03:52:47;100386.91;;;7.18;95.55
69257;BME280;56376;53.356;-1.748;2023-05-21T03:55:12;100378.28;;;7.14;95.63
69257;BME280;56376;53.356;-1.748;2023-05-21T03:57:38;100379.16;;;7.11;95.96
69257;BME280;56376;53.356;-1.748;2023-05-21T04:00:04;100373.13;;;7.11;95.49
69257;BME280;56376;53.356;-1.748;2023-05-21T04:02:30;100381.81;;;7.08;95.58
69257;BME280;56376;53.356;-1.748;2023-05-21T04:04:56;100387.00;;;7.07;96.02
69257;BME280;56376;53.356;-1.748;2023-05-21T04:07:21;100387.03;;;7.04;96.28
69257;BME280;56376;53.356;-1.748;2023-05-21T04:09:47;100386.16;;;7.03;97.72
69257;BME280;56376;53.356;-1.748;2023-05-21T04:12:12;100382.69;;;7.03;98.00
69257;BME280;56376;53.356;-1.748;2023-05-21T04:14:38;100376.66;;;7.01;97.59
69257;BME280;56376;53.356;-1.748;2023-05-21T04:17:04;100384.47;;;7.01;97.62
69257;BME280;56376;53.356;-1.748;2023-05-21T04:19:32;100368.88;;;6.98;97.90
69257;BME280;56376;53.356;-1.748;2023-05-21T04:21:58;100378.41;;;6.99;98.26
69257;BME280;56376;53.356;-1.748;2023-05-21T04:24:23;100372.31;;;7.00;99.47
69257;BME280;56376;53.356;-1.748;2023-05-21T04:26:49;100376.66;;;6.98;99.61
69257;BME280;56376;53.356;-1.748;2023-05-21T04:29:15;100380.16;;;6.97;99.95
69257;BME280;56376;53.356;-1.748;2023-05-21T04:31:46;100377.56;;;6.95;99.91
69257;BME280;56376;53.356;-1.748;2023-05-21T04:34:11;100371.47;;;6.98;100.00
69257;BME280;56376;53.356;-1.748;2023-05-21T04:36:36;100368.03;;;6.97;100.00
69257;BME280;56376;53.356;-1.748;2023-05-21T04:39:02;100372.31;;;7.00;100.00
69257;BME280;56376;53.356;-1.748;2023-05-21T04:41:30;100370.59;;;7.00;100.00
69257;BME280;56376;53.356;-1.748;2023-05-21T04:43:55;100365.41;;;6.99;100.00
69257;BME280;56376;53.356;-1.748;2023-05-21T04:46:21;100372.31;;;7.00;100.00
69257;BME280;56376;53.356;-1.748;2023-05-21T04:48:53;100356.75;;;7.00;100.00
69257;BME280;56376;53.356;-1.748;2023-05-21T04:51:20;100365.38;;;7.00;100.00
69257;BME280;56376;53.356;-1.748;2023-05-21T04:53:46;100364.53;;;7.00;100.00
69257;BME280;56376;53.356;-1.748;2023-05-21T04:56:14;100374.06;;;6.99;100.00
69257;BME280;56376;53.356;-1.748;2023-05-21T04:58:40;100373.22;;;6.97;100.00
69257;BME280;56376;53.356;-1.748;2023-05-21T05:01:05;100371.50;;;6.94;100.00
69257;BME280;56376;53.356;-1.748;2023-05-21T05:03:33;100370.63;;;6.97;100.00
69257;BME280;56376;53.356;-1.748;2023-05-21T05:05:58;100372.34;;;6.98;100.00
69257;BME280;56376;53.356;-1.748;2023-05-21T05:08:23;100368.03;;;6.97;100.00
69257;BME280;56376;53.356;-1.748;2023-05-21T05:10:49;100368.03;;;6.99;100.00
69257;BME280;56376;53.356;-1.748;2023-05-21T05:13:14;100362.84;;;6.96;100.00
69257;BME280;56376;53.356;-1.748;2023-05-21T05:15:40;100362.81;;;6.97;100.00
69257;BME280;56376;53.356;-1.748;2023-05-21T05:18:05;100368.03;;;6.97;100.00
69257;BME280;56376;53.356;-1.748;2023-05-21T05:20:32;100367.16;;;6.98;100.00
69257;BME280;56376;53.356;-1.748;2023-05-21T05:22:58;100368.00;;;7.00;100.00
69257;BME280;56376;53.356;-1.748;2023-05-21T05:25:23;100363.69;;;7.01;100.00
69257;BME280;56376;53.356;-1.748;2023-05-21T05:27:49;100363.66;;;7.02;100.00
69257;BME280;56376;53.356;-1.748;2023-05-21T05:30:14;100361.03;;;7.02;100.00
69257;BME280;56376;53.356;-1.748;2023-05-21T05:32:39;100367.09;;;7.03;100.00
69257;BME280;56376;53.356;-1.748;2023-05-21T05:35:06;100359.28;;;7.07;100.00
69257;BME280;56376;53.356;-1.748;2023-05-21T05:37:31;100362.75;;;7.05;100.00
69257;BME280;56376;53.356;-1.748;2023-05-21T05:39:57;100358.41;;;7.07;100.00
69257;BME280;56376;53.356;-1.748;2023-05-21T05:42:23;100362.75;;;7.06;100.00
69257;BME280;56376;53.356;-1.748;2023-05-21T05:44:48;100361.88;;;7.07;100.00
69257;BME280;56376;53.356;-1.748;2023-05-21T05:47:13;100361.84;;;7.10;100.00
69257;BME280;56376;53.356;-1.748;2023-05-21T05:49:39;100368.69;;;7.19;100.00
69257;BME280;56376;53.356;-1.748;2023-05-21T05:52:05;100353.91;;;7.27;100.00
69257;BME280;56376;53.356;-1.748;2023-05-21T05:54:30;100360.72;;;7.37;100.00
69257;BME280;56376;53.356;-1.748;2023-05-21T05:56:56;100373.63;;;7.47;100.00
69257;BME280;56376;53.356;-1.748;2023-05-21T05:59:21;100363.16;;;7.54;100.00
69257;BME280;56376;53.356;-1.748;2023-05-21T06:01:46;100365.63;;;7.65;100.00
69257;BME280;56376;53.356;-1.748;2023-05-21T06:04:12;100368.09;;;7.77;100.00
69257;BME280;56376;53.356;-1.748;2023-05-21T06:06:37;100374.00;;;7.92;100.00
69257;BME280;56376;53.356;-1.748;2023-05-21T06:09:03;100378.13;;;8.08;100.00
69257;BME280;56376;53.356;-1.748;2023-05-21T06:11:28;100383.19;;;8.22;100.00
69257;BME280;56376;53.356;-1.748;2023-05-21T06:13:54;100380.41;;;8.34;100.00
69257;BME280;56376;53.356;-1.748;2023-05-21T06:16:19;100375.03;;;8.48;100.00
69257;BME280;56376;53.356;-1.748;2023-05-21T06:18:44;100377.47;;;8.59;100.00
69257;BME280;56376;53.356;-1.748;2023-05-21T06:21:10;100378.97;;;8.75;100.00
69257;BME280;56376;53.356;-1.748;2023-05-21T06:23:35;100383.94;;;8.91;99.11
69257;BME280;56376;53.356;-1.748;2023-05-21T06:26:05;100382.91;;;9.02;98.86
69257;BME280;56376;53.356;-1.748;2023-05-21T06:28:30;100378.28;;;9.18;98.47
69257;BME280;56376;53.356;-1.748;2023-05-21T06:30:55;100372.00;;;9.30;97.04
69257;BME280;56376;53.356;-1.748;2023-05-21T06:33:21;100372.66;;;9.41;96.37
69257;BME280;56376;53.356;-1.748;2023-05-21T06:35:47;100377.66;;;9.55;95.77
69257;BME280;56376;53.356;-1.748;2023-05-21T06:38:12;100382.56;;;9.70;95.13
69257;BME280;56376;53.356;-1.748;2023-05-21T06:40:38;100377.06;;;9.86;94.54
69257;BME280;56376;53.356;-1.748;2023-05-21T06:43:03;100383.75;;;9.99;93.90
69257;BME280;56376;53.356;-1.748;2023-05-21T06:45:29;100381.81;;;10.09;92.94
69257;BME280;56376;53.356;-1.748;2023-05-21T06:47:54;100386.72;;;10.23;92.68
69257;BME280;56376;53.356;-1.748;2023-05-21T06:50:20;100379.50;;;10.37;91.70
69257;BME280;56376;53.356;-1.748;2023-05-21T06:52:45;100373.97;;;10.51;91.78
69257;BME280;56376;53.356;-1.748;2023-05-21T06:55:11;100386.69;;;10.66;91.89
69257;BME280;56376;53.356;-1.748;2023-05-21T06:57:37;100377.56;;;10.82;94.06
69257;BME280;56376;53.356;-1.748;2023-05-21T07:00:06;100377.25;;;10.96;93.89
69257;BME280;56376;53.356;-1.748;2023-05-21T07:02:33;100366.47;;;11.09;93.27
69257;BME280;56376;53.356;-1.748;2023-05-21T07:04:58;100366.06;;;11.25;92.66
69257;BME280;56376;53.356;-1.748;2023-05-21T07:07:24;100365.56;;;11.44;92.91
69257;BME280;56376;53.356;-1.748;2023-05-21T07:09:49;100365.25;;;11.56;91.11
69257;BME280;56376;53.356;-1.748;2023-05-21T07:12:15;100366.66;;;11.69;87.82
69257;BME280;56376;53.356;-1.748;2023-05-21T07:14:40;100367.91;;;11.86;87.21
69257;BME280;56376;53.356;-1.748;2023-05-21T07:17:05;100358.94;;;11.96;86.61
69257;BME280;56376;53.356;-1.748;2023-05-21T07:19:31;100360.22;;;12.12;86.12
69257;BME280;56376;53.356;-1.748;2023-05-21T07:21:56;100352.75;;;12.28;86.78
69257;BME280;56376;53.356;-1.748;2023-05-21T07:24:22;100359.28;;;12.43;84.01
69257;BME280;56376;53.356;-1.748;2023-05-21T07:26:47;100358.81;;;12.59;82.80
69257;BME280;56376;53.356;-1.748;2023-05-21T07:29:13;100354.78;;;12.75;81.42
69257;BME280;56376;53.356;-1.748;2023-05-21T07:31:38;100353.50;;;12.88;77.62
69257;BME280;56376;53.356;-1.748;2023-05-21T07:34:03;100355.66;;;13.02;75.95
69257;BME280;56376;53.356;-1.748;2023-05-21T07:36:29;100363.97;;;13.15;74.95
69257;BME280;56376;53.356;-1.748;2023-05-21T07:38:55;100371.56;;;13.23;72.99
69257;BME280;56376;53.356;-1.748;2023-05-21T07:41:20;100368.56;;;13.35;71.28
69257;BME280;56376;53.356;-1.748;2023-05-21T07:43:46;100364.56;;;13.50;70.32
69257;BME280;56376;53.356;-1.748;2023-05-21T07:46:12;100371.09;;;13.63;71.26
69257;BME280;56376;53.356;-1.748;2023-05-21T07:48:37;100372.28;;;13.79;70.39
69257;BME280;56376;53.356;-1.748;2023-05-21T07:51:03;100371.75;;;13.93;67.54
69257;BME280;56376;53.356;-1.748;2023-05-21T07:53:29;100369.44;;;14.09;65.11
69257;BME280;56376;53.356;-1.748;2023-05-21T07:55:57;100365.28;;;14.25;63.14
69257;BME280;56376;53.356;-1.748;2023-05-21T07:58:22;100375.22;;;14.41;62.01
69257;BME280;56376;53.356;-1.748;2023-05-21T08:00:47;100376.44;;;14.56;59.24
69257;BME280;56376;53.356;-1.748;2023-05-21T08:03:13;100364.47;;;14.70;57.53
69257;BME280;56376;53.356;-1.748;2023-05-21T08:05:41;100366.47;;;14.86;55.17
69257;BME280;56376;53.356;-1.748;2023-05-21T08:08:06;100362.34;;;15.01;55.09
69257;BME280;56376;53.356;-1.748;2023-05-21T08:10:32;100360.84;;;15.15;54.51
69257;BME280;56376;53.356;-1.748;2023-05-21T08:12:57;100354.09;;;15.30;54.54
69257;BME280;56376;53.356;-1.748;2023-05-21T08:15:24;100364.75;;;15.48;54.78
69257;BME280;56376;53.356;-1.748;2023-05-21T08:17:50;100359.66;;;15.64;53.70
69257;BME280;56376;53.356;-1.748;2023-05-21T08:20:16;100359.88;;;15.79;52.59
69257;BME280;56376;53.356;-1.748;2023-05-21T08:22:41;100361.41;;;15.85;51.62
69257;BME280;56376;53.356;-1.748;2023-05-21T08:25:08;100365.31;;;15.95;51.66
69257;BME280;56376;53.356;-1.748;2023-05-21T08:27:33;100361.47;;;16.02;52.32
69257;BME280;56376;53.356;-1.748;2023-05-21T08:29:58;100353.94;;;16.14;52.17
69257;BME280;56376;53.356;-1.748;2023-05-21T08:32:24;100362.28;;;16.23;50.10
69257;BME280;56376;53.356;-1.748;2023-05-21T08:34:49;100358.44;;;16.31;49.78
69257;BME280;56376;53.356;-1.748;2023-05-21T08:37:14;100356.34;;;16.37;48.63
69257;BME280;56376;53.356;-1.748;2023-05-21T08:39:42;100359.75;;;16.39;48.38
69257;BME280;56376;53.356;-1.748;2023-05-21T08:42:21;100347.38;;;16.41;47.85
69257;BME280;56376;53.356;-1.748;2023-05-21T08:44:50;100354.34;;;16.42;47.20
69257;BME280;56376;53.356;-1.748;2023-05-21T08:47:18;100363.97;;;16.43;46.89
69257;BME280;56376;53.356;-1.748;2023-05-21T08:49:48;100356.06;;;16.43;47.29
69257;BME280;56376;53.356;-1.748;2023-05-21T08:52:15;100357.75;;;16.44;47.11
69257;BME280;56376;53.356;-1.748;2023-05-21T08:54:41;100355.06;;;16.46;47.83
69257;BME280;56376;53.356;-1.748;2023-05-21T08:57:08;100352.84;;;16.37;46.76
69257;BME280;56376;53.356;-1.748;2023-05-21T08:59:34;100352.78;;;16.38;47.53
69257;BME280;56376;53.356;-1.748;2023-05-21T09:02:02;100349.31;;;16.38;48.72
69257;BME280;56376;53.356;-1.748;2023-05-21T09:04:29;100343.09;;;16.39;48.96
69257;BME280;56376;53.356;-1.748;2023-05-21T09:06:56;100351.78;;;16.41;49.97
69257;BME280;56376;53.356;-1.748;2023-05-21T09:09:48;100349.22;;;16.39;50.95
69257;BME280;56376;53.356;-1.748;2023-05-21T09:12:15;100354.44;;;16.41;51.47
69257;BME280;56376;53.356;-1.748;2023-05-21T09:14:41;100342.78;;;16.45;51.94
69257;BME280;56376;53.356;-1.748;2023-05-21T09:17:07;100340.88;;;16.49;52.13
69257;BME280;56376;53.356;-1.748;2023-05-21T09:19:32;100345.94;;;16.53;51.47
69257;BME280;56376;53.356;-1.748;2023-05-21T09:22:02;100339.56;;;16.57;51.39
69257;BME280;56376;53.356;-1.748;2023-05-21T09:24:30;100346.47;;;16.60;50.63
69257;BME280;56376;53.356;-1.748;2023-05-21T09:26:56;100335.16;;;16.58;51.40
69257;BME280;56376;53.356;-1.748;2023-05-21T09:29:23;100339.66;;;16.56;50.28
69257;BME280;56376;53.356;-1.748;2023-05-21T09:31:50;100341.50;;;16.54;49.80
69257;BME280;56376;53.356;-1.748;2023-05-21T09:34:16;100339.50;;;16.59;50.10
69257;BME280;56376;53.356;-1.748;2023-05-21T09:36:42;100331.06;;;16.70;51.00
69257;BME280;56376;53.356;-1.748;2023-05-21T09:39:08;100334.94;;;16.81;50.45
69257;BME280;56376;53.356;-1.748;2023-05-21T09:41:36;100331.69;;;16.94;49.10
69257;BME280;56376;53.356;-1.748;2023-05-21T09:44:02;100328.50;;;17.04;50.25
69257;BME280;56376;53.356;-1.748;2023-05-21T09:46:37;100339.06;;;17.22;50.17
69257;BME280;56376;53.356;-1.748;2023-05-21T09:49:02;100335.03;;;17.32;49.13
69257;BME280;56376;53.356;-1.748;2023-05-21T09:51:28;100336.31;;;17.41;48.50
69257;BME280;56376;53.356;-1.748;2023-05-21T09:53:55;100336.78;;;17.49;48.21
69257;BME280;56376;53.356;-1.748;2023-05-21T09:56:25;100332.25;;;17.51;47.38
69257;BME280;56376;53.356;-1.748;2023-05-21T09:58:55;100317.19;;;17.53;47.32
69257;BME280;56376;53.356;-1.748;2023-05-21T10:01:22;100322.41;;;17.55;47.15
69257;BME280;56376;53.356;-1.748;2023-05-21T10:03:58;100312.69;;;17.55;48.63
69257;BME280;56376;53.356;-1.748;2023-05-21T10:06:29;100314.56;;;17.53;47.04
69257;BME280;56376;53.356;-1.748;2023-05-21T10:08:56;100316.50;;;17.49;46.86
69257;BME280;56376;53.356;-1.748;2023-05-21T10:11:29;100309.38;;;17.51;48.37
69257;BME280;56376;53.356;-1.748;2023-05-21T10:14:09;100316.00;;;17.59;48.20
69257;BME280;56376;53.356;-1.748;2023-05-21T10:16:38;100307.78;;;17.65;48.04
69257;BME280;56376;53.356;-1.748;2023-05-21T10:19:05;100313.66;;;17.70;47.71
69257;BME280;56376;53.356;-1.748;2023-05-21T10:21:35;100300.22;;;17.74;48.06
69257;BME280;56376;53.356;-1.748;2023-05-21T10:24:01;100310.47;;;17.81;47.57
69257;BME280;56376;53.356;-1.748;2023-05-21T10:26:27;100316.97;;;17.91;47.21
69257;BME280;56376;53.356;-1.748;2023-05-21T10:28:55;100308.88;;;17.94;45.48
69257;BME280;56376;53.356;-1.748;2023-05-21T10:31:21;100304.09;;;18.01;44.44
69257;BME280;56376;53.356;-1.748;2023-05-21T10:33:47;100298.16;;;17.97;44.42
69257;BME280;56376;53.356;-1.748;2023-05-21T10:36:15;100305.72;;;18.03;46.86
69257;BME280;56376;53.356;-1.748;2023-05-21T10:38:42;100318.78;;;18.06;44.63
69257;BME280;56376;53.356;-1.748;2023-05-21T10:41:08;100306.69;;;18.02;44.96
69257;BME280;56376;53.356;-1.748;2023-05-21T10:52:25;100293.72;;;18.13;45.87
69257;BME280;56376;53.356;-1.748;2023-05-21T10:55:01;100292.69;;;18.16;45.29
69257;BME280;56376;53.356;-1.748;2023-05-21T10:58:11;100284.44;;;18.22;43.83
69257;BME280;56376;53.356;-1.748;2023-05-21T11:00:41;100284.84;;;18.14;44.48
69257;BME280;56376;53.356;-1.748;2023-05-21T11:03:09;100296.03;;;18.20;45.88
69257;BME280;56376;53.356;-1.748;2023-05-21T11:05:56;100297.53;;;18.24;46.21
69257;BME280;56376;53.356;-1.748;2023-05-21T11:10:54;100290.78;;;18.34;44.09
69257;BME280;56376;53.356;-1.748;2023-05-21T11:13:22;100288.50;;;18.44;43.90
69257;BME280;56376;53.356;-1.748;2023-05-21T11:16:06;100278.25;;;18.53;42.73
69257;BME280;56376;53.356;-1.748;2023-05-21T11:26:14;100274.28;;;18.76;40.76
69257;BME280;56376;53.356;-1.748;2023-05-21T11:28:40;100281.78;;;18.84;39.92
69257;BME280;56376;53.356;-1.748;2023-05-21T11:31:25;100273.66;;;18.87;38.77
69257;BME280;56376;53.356;-1.748;2023-05-21T11:36:48;100276.34;;;19.01;39.25
69257;BME280;56376;53.356;-1.748;2023-05-21T11:44:16;100279.56;;;19.07;39.53
69257;BME280;56376;53.356;-1.748;2023-05-21T11:46:42;100283.63;;;19.12;39.78
69257;BME280;56376;53.356;-1.748;2023-05-21T11:49:08;100278.00;;;19.18;39.09
69257;BME280;56376;53.356;-1.748;2023-05-21T11:51:33;100287.63;;;19.19;38.23
69257;BME280;56376;53.356;-1.748;2023-05-21T11:54:00;100285.75;;;19.21;37.47
69257;BME280;56376;53.356;-1.748;2023-05-21T11:56:25;100280.44;;;19.21;36.68
69257;BME280;56376;53.356;-1.748;2023-05-21T11:58:55;100289.34;;;19.20;37.48
69257;BME280;56376;53.356;-1.748;2023-05-21T12:01:22;100286.78;;;19.19;37.73
69257;BME280;56376;53.356;-1.748;2023-05-21T12:03:47;100280.38;;;19.23;39.05
69257;BME280;56376;53.356;-1.748;2023-05-21T12:06:12;100283.47;;;19.30;38.14
69257;BME280;56376;53.356;-1.748;2023-05-21T12:08:38;100272.41;;;19.37;39.67
69257;BME280;56376;53.356;-1.748;2023-05-21T12:11:03;100275.47;;;19.45;40.03
69257;BME280;56376;53.356;-1.748;2023-05-21T12:13:29;100272.44;;;19.52;39.16
69257;BME280;56376;53.356;-1.748;2023-05-21T12:15:54;100277.34;;;19.58;38.82
69257;BME280;56376;53.356;-1.748;2023-05-21T12:18:20;100276.22;;;19.62;37.65
69257;BME280;56376;53.356;-1.748;2023-05-21T12:20:45;100274.16;;;19.67;38.21
69257;BME280;56376;53.356;-1.748;2023-05-21T12:23:23;100271.22;;;19.72;39.19
69257;BME280;56376;53.356;-1.748;2023-05-21T12:25:50;100261.09;;;19.78;38.85
69257;BME280;56376;53.356;-1.748;2023-05-21T12:28:16;100260.50;;;19.87;38.16
69257;BME280;56376;53.356;-1.748;2023-05-21T12:30:41;100258.97;;;19.98;37.33
69257;BME280;56376;53.356;-1.748;2023-05-21T12:33:07;100263.91;;;20.04;34.68
69257;BME280;56376;53.356;-1.748;2023-05-21T12:35:32;100260.28;;;20.05;35.36
69257;BME280;56376;53.356;-1.748;2023-05-21T12:38:01;100253.63;;;20.12;35.15
69257;BME280;56376;53.356;-1.748;2023-05-21T12:40:34;100253.06;;;20.21;35.39
69257;BME280;56376;53.356;-1.748;2023-05-21T12:43:00;100267.59;;;20.28;35.64
69257;BME280;56376;53.356;-1.748;2023-05-21T12:45:26;100274.13;;;20.37;35.95
69257;BME280;56376;53.356;-1.748;2023-05-21T12:47:51;100265.09;;;20.40;35.62
69257;BME280;56376;53.356;-1.748;2023-05-21T12:50:20;100264.91;;;20.43;36.27
69257;BME280;56376;53.356;-1.748;2023-05-21T12:52:46;100259.22;;;20.49;35.18
69257;BME280;56376;53.356;-1.748;2023-05-21T12:55:15;100256.91;;;20.57;35.86
69257;BME280;56376;53.356;-1.748;2023-05-21T12:57:41;100252.69;;;20.67;36.46
69257;BME280;56376;53.356;-1.748;2023-05-21T13:00:08;100256.34;;;20.79;37.43
69257;BME280;56376;53.356;-1.748;2023-05-21T13:02:41;100263.47;;;20.91;36.55
69257;BME280;56376;53.356;-1.748;2023-05-21T13:05:07;100258.50;;;21.00;37.33
69257;BME280;56376;53.356;-1.748;2023-05-21T13:07:35;100249.88;;;21.09;37.27